createdAt,value
2022-08-20T00:02:33.632Z,998.73
2022-08-20T00:07:33.584Z,998.67
2022-08-20T00:12:33.505Z,998.70
2022-08-20T00:17:33.433Z,998.68
2022-08-20T00:22:33.365Z,998.65
2022-08-20T00:27:33.306Z,998.67
2022-08-20T00:32:33.417Z,998.65
2022-08-20T00:37:33.176Z,998.58
2022-08-20T00:42:33.108Z,998.72
2022-08-20T00:47:33.052Z,998.70
2022-08-20T00:52:32.969Z,998.65
2022-08-20T00:57:58.842Z,998.68
2022-08-20T01:02:33.857Z,998.74
2022-08-20T01:07:32.780Z,998.71
2022-08-20T01:12:32.725Z,998.64
2022-08-20T01:17:32.653Z,998.69
2022-08-20T01:22:32.593Z,998.74
2022-08-20T01:27:32.510Z,998.71
2022-08-20T01:32:32.451Z,998.76
2022-08-20T01:37:32.562Z,998.79
2022-08-20T01:42:32.342Z,998.86
2022-08-20T01:47:37.290Z,998.90
2022-08-20T01:52:33.205Z,998.81
2022-08-20T01:57:32.114Z,998.84
2022-08-20T02:02:32.047Z,998.83
2022-08-20T02:07:31.978Z,998.83
2022-08-20T02:12:31.916Z,998.79
2022-08-20T02:17:31.839Z,998.89
2022-08-20T02:22:31.792Z,998.86
2022-08-20T02:27:31.743Z,998.97
2022-08-20T02:32:34.194Z,998.90
2022-08-20T02:37:31.860Z,998.88
2022-08-20T02:42:31.711Z,998.91
2022-08-20T02:47:31.454Z,998.86
2022-08-20T02:52:31.393Z,998.82
2022-08-20T02:57:31.330Z,998.76
2022-08-20T03:02:31.255Z,998.66
2022-08-20T03:07:31.185Z,998.70
2022-08-20T03:12:31.126Z,998.62
2022-08-20T03:17:31.057Z,998.55
2022-08-20T03:22:31.006Z,998.64
2022-08-20T03:27:32.732Z,998.71
2022-08-20T03:32:31.879Z,998.71
2022-08-20T03:37:30.799Z,998.70
2022-08-20T03:42:30.729Z,998.70
2022-08-20T03:47:30.670Z,998.71
2022-08-20T03:52:30.600Z,998.74
2022-08-20T03:57:30.553Z,998.82
2022-08-20T04:02:30.492Z,998.84
2022-08-20T04:07:30.413Z,998.83
2022-08-20T04:12:30.354Z,998.84
2022-08-20T04:17:30.283Z,998.85
2022-08-20T04:22:30.204Z,998.92
2022-08-20T04:27:30.144Z,998.78
2022-08-20T04:32:30.086Z,998.82
2022-08-20T04:37:30.009Z,998.81
2022-08-20T04:42:29.947Z,998.91
2022-08-20T04:47:34.841Z,998.89
2022-08-20T04:52:30.807Z,998.99
2022-08-20T04:57:29.744Z,999.08
2022-08-20T05:02:29.668Z,998.98
2022-08-20T05:07:29.609Z,999.06
2022-08-20T05:12:29.550Z,999.06
2022-08-20T05:17:29.485Z,999.03
2022-08-20T05:22:31.014Z,999.04
2022-08-20T05:27:29.370Z,999.05
2022-08-20T05:32:29.282Z,999.00
2022-08-20T05:37:29.223Z,999.10
2022-08-20T05:42:29.180Z,999.15
2022-08-20T05:47:29.343Z,999.10
2022-08-20T05:52:30.028Z,999.10
2022-08-20T05:57:28.954Z,999.23
2022-08-20T06:02:28.918Z,999.27
2022-08-20T06:07:28.869Z,999.27
2022-08-20T06:12:28.766Z,999.29
2022-08-20T06:17:28.696Z,999.33
2022-08-20T06:22:29.626Z,999.25
2022-08-20T06:27:28.570Z,999.38
2022-08-20T06:32:32.138Z,999.34
2022-08-20T06:37:31.391Z,999.57
2022-08-20T06:42:28.389Z,999.59
2022-08-20T06:47:28.297Z,999.63
2022-08-20T06:52:52.108Z,999.70
2022-08-20T06:57:29.161Z,999.74
2022-08-20T07:02:30.168Z,999.68
2022-08-20T07:07:28.353Z,999.76
2022-08-20T07:12:27.992Z,999.78
2022-08-20T07:17:27.930Z,999.78
2022-08-20T07:22:27.854Z,999.78
2022-08-20T07:27:27.815Z,999.78
2022-08-20T07:32:28.985Z,999.82
2022-08-20T07:37:27.656Z,999.89
2022-08-20T07:42:27.567Z,999.98
2022-08-20T07:47:27.516Z,999.98
2022-08-20T07:52:27.457Z,1000.13
2022-08-20T07:57:27.408Z,1000.03
2022-08-20T08:02:27.311Z,1000.14
2022-08-20T08:07:27.290Z,1000.04
2022-08-20T08:12:27.201Z,1000.02
2022-08-20T08:17:27.145Z,1000.15
2022-08-20T08:22:27.082Z,1000.23
2022-08-20T08:27:27.104Z,1000.32
2022-08-20T08:32:26.948Z,1000.32
2022-08-20T08:37:30.494Z,1000.43
2022-08-20T08:42:26.825Z,1000.34
2022-08-20T08:47:26.880Z,1000.41
2022-08-20T08:52:26.695Z,1000.48
2022-08-20T08:57:26.635Z,1000.42
2022-08-20T09:02:26.813Z,1000.35
2022-08-20T09:07:33.600Z,1000.44
2022-08-20T09:12:26.417Z,1000.44
2022-08-20T09:17:26.348Z,1000.45
2022-08-20T09:22:26.359Z,1000.45
2022-08-20T09:27:26.211Z,1000.32
2022-08-20T09:32:26.303Z,1000.39
2022-08-20T09:37:26.073Z,1000.41
2022-08-20T09:42:26.003Z,1000.32
2022-08-20T09:47:25.960Z,1000.32
2022-08-20T09:52:25.903Z,1000.34
2022-08-20T09:57:25.939Z,1000.45
2022-08-20T10:02:25.798Z,1000.45
2022-08-20T10:07:25.785Z,1000.51
2022-08-20T10:12:25.664Z,1000.47
2022-08-20T10:17:25.553Z,1000.57
2022-08-20T10:22:25.534Z,1000.58
2022-08-20T10:27:25.424Z,1000.57
2022-08-20T10:32:25.366Z,1000.70
2022-08-20T10:37:25.294Z,1000.71
2022-08-20T10:42:25.260Z,1000.73
2022-08-20T10:47:25.208Z,1000.79
2022-08-20T10:52:25.189Z,1000.71
2022-08-20T10:57:25.349Z,1000.63
2022-08-20T11:02:25.003Z,1000.65
2022-08-20T11:07:49.523Z,1000.67
2022-08-20T11:12:26.073Z,1000.72
2022-08-20T11:17:24.784Z,1000.73
2022-08-20T11:22:24.763Z,1000.69
2022-08-20T11:27:24.642Z,1000.82
2022-08-20T11:32:24.576Z,1000.86
2022-08-20T11:37:24.498Z,1000.93
2022-08-20T11:42:24.415Z,1001.00
2022-08-20T11:47:24.365Z,1001.06
2022-08-20T11:52:24.302Z,1001.12
2022-08-20T11:57:24.247Z,1001.16
2022-08-20T12:02:24.257Z,1001.19
2022-08-20T12:07:24.109Z,1001.22
2022-08-20T12:12:24.112Z,1001.22
2022-08-20T12:17:24.023Z,1001.23
2022-08-20T12:22:24.744Z,1001.24
2022-08-20T12:27:23.870Z,1001.29
2022-08-20T12:32:23.811Z,1001.28
2022-08-20T12:37:23.762Z,1001.26
2022-08-20T12:42:23.680Z,1001.30
2022-08-20T12:47:23.611Z,1001.26
2022-08-20T12:52:23.546Z,1001.34
2022-08-20T12:57:23.508Z,1001.26
2022-08-20T13:02:23.408Z,1001.21
2022-08-20T13:07:23.398Z,1001.25
2022-08-20T13:12:23.287Z,1001.27
2022-08-20T13:17:38.829Z,1001.17
2022-08-20T13:22:24.442Z,1001.24
2022-08-20T13:27:23.192Z,1001.27
2022-08-20T13:32:23.187Z,1001.32
2022-08-20T13:37:25.348Z,1001.32
2022-08-20T13:42:22.900Z,1001.33
2022-08-20T13:47:22.842Z,1001.48
2022-08-20T13:52:22.770Z,1001.43
2022-08-20T13:57:22.772Z,1001.47
2022-08-20T14:02:22.683Z,1001.33
2022-08-20T14:07:22.692Z,1001.38
2022-08-20T14:12:22.535Z,1001.46
2022-08-20T14:17:22.494Z,1001.36
2022-08-20T14:22:22.476Z,1001.47
2022-08-20T14:27:23.735Z,1001.45
2022-08-20T14:32:22.356Z,1001.46
2022-08-20T14:37:22.212Z,1001.48
2022-08-20T14:42:22.134Z,1001.55
2022-08-20T14:47:22.085Z,1001.45
2022-08-20T14:52:21.988Z,1001.52
2022-08-20T14:57:21.942Z,1001.50
2022-08-20T15:02:21.880Z,1001.42
2022-08-20T15:07:21.924Z,1001.45
2022-08-20T15:12:21.801Z,1001.44
2022-08-20T15:17:21.697Z,1001.45
2022-08-20T15:22:21.719Z,1001.40
2022-08-20T15:27:22.759Z,1001.42
2022-08-20T15:32:21.674Z,1001.47
2022-08-20T15:37:21.404Z,1001.46
2022-08-20T15:42:21.352Z,1001.44
2022-08-20T15:47:21.313Z,1001.43
2022-08-20T15:52:21.238Z,1001.50
2022-08-20T15:57:21.210Z,1001.61
2022-08-20T16:02:25.558Z,1001.61
2022-08-20T16:07:21.019Z,1001.61
2022-08-20T16:12:20.958Z,1001.70
2022-08-20T16:17:20.891Z,1001.57
2022-08-20T16:22:20.828Z,1001.60
2022-08-20T16:27:20.751Z,1001.66
2022-08-20T16:32:20.698Z,1001.57
2022-08-20T16:37:20.891Z,1001.67
2022-08-20T16:42:20.560Z,1001.69
2022-08-20T16:47:20.501Z,1001.78
2022-08-20T16:52:20.451Z,1001.78
2022-08-20T16:57:20.372Z,1001.79
2022-08-20T17:02:20.302Z,1001.85
2022-08-20T17:07:20.260Z,1001.91
2022-08-20T17:12:20.174Z,1001.90
2022-08-20T17:17:20.104Z,1001.94
2022-08-20T17:22:20.035Z,1001.90
2022-08-20T17:27:19.994Z,1002.00
2022-08-20T17:32:19.917Z,1002.13
2022-08-20T17:37:19.864Z,1002.08
2022-08-20T17:42:20.028Z,1002.07
2022-08-20T17:47:19.718Z,1002.04
2022-08-20T17:52:19.676Z,1002.11
2022-08-20T17:57:19.577Z,1002.20
2022-08-20T18:02:19.611Z,1002.24
2022-08-20T18:07:19.443Z,1002.24
2022-08-20T18:12:27.936Z,1002.28
2022-08-20T18:17:20.336Z,1002.35
2022-08-20T18:22:19.293Z,1002.28
2022-08-20T18:27:19.197Z,1002.39
2022-08-20T18:32:19.120Z,1002.36
2022-08-20T18:37:19.135Z,1002.36
2022-08-20T18:42:19.055Z,1002.38
2022-08-20T18:47:19.037Z,1002.39
2022-08-20T18:52:18.865Z,1002.38
2022-08-20T18:57:18.835Z,1002.48
2022-08-20T19:02:18.786Z,1002.54
2022-08-20T19:07:18.708Z,1002.62
2022-08-20T19:12:18.621Z,1002.55
2022-08-20T19:17:18.640Z,1002.56
2022-08-20T19:22:18.470Z,1002.56
2022-08-20T19:27:18.425Z,1002.54
2022-08-20T19:32:18.330Z,1002.54
2022-08-20T19:37:35.799Z,1002.48
2022-08-20T19:42:19.308Z,1002.50
2022-08-20T19:47:20.209Z,1002.48
2022-08-20T19:52:18.190Z,1002.41
2022-08-20T19:57:18.003Z,1002.46
2022-08-20T20:02:21.115Z,1002.34
2022-08-20T20:07:17.883Z,1002.48
2022-08-20T20:12:22.943Z,1002.38
2022-08-20T20:17:22.914Z,1002.45
2022-08-20T20:22:20.208Z,1002.32
2022-08-20T20:27:20.853Z,1002.32
2022-08-20T20:32:17.596Z,1002.27
2022-08-20T20:37:17.493Z,1002.26
2022-08-20T20:42:18.444Z,1002.21
2022-08-20T20:47:17.346Z,1002.19
2022-08-20T20:52:17.286Z,1002.17
2022-08-20T20:57:17.245Z,1002.17
2022-08-20T21:02:17.224Z,1002.09
2022-08-20T21:07:17.087Z,1002.02
2022-08-20T21:12:17.019Z,1002.05
2022-08-20T21:17:16.959Z,1001.97
2022-08-20T21:22:16.908Z,1001.83
2022-08-20T21:27:16.828Z,1001.85
2022-08-20T21:32:16.765Z,1001.76
2022-08-20T21:37:16.710Z,1001.86
2022-08-20T21:42:21.646Z,1001.72
2022-08-20T21:47:17.563Z,1001.74
2022-08-20T21:52:16.513Z,1001.65
2022-08-20T21:57:16.433Z,1001.69
2022-08-20T22:02:16.363Z,1001.61
2022-08-20T22:07:16.320Z,1001.56
2022-08-20T22:12:16.428Z,1001.60
2022-08-20T22:17:16.166Z,1001.65
2022-08-20T22:22:16.098Z,1001.63
2022-08-20T22:27:16.066Z,1001.67
2022-08-20T22:32:15.974Z,1001.67
2022-08-20T22:37:15.911Z,1001.67
2022-08-20T22:42:15.854Z,1001.66
2022-08-20T22:47:15.785Z,1001.72
2022-08-20T22:52:15.719Z,1001.79
2022-08-20T22:57:15.693Z,1001.77
2022-08-20T23:02:15.748Z,1001.75
2022-08-20T23:07:15.513Z,1001.82
2022-08-20T23:12:15.451Z,1001.73
2022-08-20T23:17:15.391Z,1001.87
2022-08-20T23:22:15.339Z,1001.86
2022-08-20T23:27:15.314Z,1001.80
2022-08-20T23:32:15.239Z,1001.68
2022-08-20T23:37:15.130Z,1001.60
2022-08-20T23:42:15.065Z,1001.72
2022-08-20T23:47:14.994Z,1001.72
2022-08-20T23:52:14.953Z,1001.77
2022-08-20T23:57:14.898Z,1001.70
